sensor_id;sensor_type;location;lat;lon;timestamp;P1;durP1;ratioP1;P2;durP2;ratioP2
6626;SDS011;3349;49.830;8.748;2023-07-31T00:01:03;4.65;;;2.63;;
6626;SDS011;3349;49.830;8.748;2023-07-31T00:03:29;5.68;;;2.50;;
6626;SDS011;3349;49.830;8.748;2023-07-31T00:05:56;6.30;;;2.60;;
6626;SDS011;3349;49.830;8.748;2023-07-31T00:08:24;6.25;;;2.22;;
6626;SDS011;3349;49.830;8.748;2023-07-31T00:10:51;6.07;;;2.25;;
6626;SDS011;3349;49.830;8.748;2023-07-31T00:13:18;4.65;;;2.30;;
6626;SDS011;3349;49.830;8.748;2023-07-31T00:15:45;4.03;;;2.10;;
6626;SDS011;3349;49.830;8.748;2023-07-31T00:18:12;4.95;;;2.63;;
6626;SDS011;3349;49.830;8.748;2023-07-31T00:20:39;4.55;;;2.08;;
6626;SDS011;3349;49.830;8.748;2023-07-31T00:23:05;4.18;;;2.55;;
6626;SDS011;3349;49.830;8.748;2023-07-31T00:25:33;8.48;;;2.50;;
6626;SDS011;3349;49.830;8.748;2023-07-31T00:28:00;3.67;;;2.40;;
6626;SDS011;3349;49.830;8.748;2023-07-31T00:30:27;6.70;;;2.60;;
6626;SDS011;3349;49.830;8.748;2023-07-31T00:32:53;6.35;;;2.67;;
6626;SDS011;3349;49.830;8.748;2023-07-31T00:35:20;6.78;;;2.60;;
6626;SDS011;3349;49.830;8.748;2023-07-31T00:37:47;3.75;;;2.25;;
6626;SDS011;3349;49.830;8.748;2023-07-31T00:40:13;5.75;;;2.40;;
6626;SDS011;3349;49.830;8.748;2023-07-31T00:42:41;5.25;;;2.65;;
6626;SDS011;3349;49.830;8.748;2023-07-31T00:45:08;7.82;;;2.50;;
6626;SDS011;3349;49.830;8.748;2023-07-31T00:47:36;4.63;;;2.20;;
6626;SDS011;3349;49.830;8.748;2023-07-31T00:50:02;5.95;;;2.40;;
6626;SDS011;3349;49.830;8.748;2023-07-31T00:52:29;6.55;;;2.28;;
6626;SDS011;3349;49.830;8.748;2023-07-31T00:54:56;6.30;;;3.00;;
6626;SDS011;3349;49.830;8.748;2023-07-31T00:57:23;6.20;;;2.45;;
6626;SDS011;3349;49.830;8.748;2023-07-31T00:59:51;6.18;;;2.35;;
6626;SDS011;3349;49.830;8.748;2023-07-31T01:02:18;3.67;;;2.25;;
6626;SDS011;3349;49.830;8.748;2023-07-31T01:04:44;6.25;;;2.60;;
6626;SDS011;3349;49.830;8.748;2023-07-31T01:07:13;5.97;;;2.15;;
6626;SDS011;3349;49.830;8.748;2023-07-31T01:09:47;8.52;;;2.40;;
6626;SDS011;3349;49.830;8.748;2023-07-31T01:12:20;5.53;;;2.50;;
6626;SDS011;3349;49.830;8.748;2023-07-31T01:14:53;5.20;;;2.50;;
6626;SDS011;3349;49.830;8.748;2023-07-31T01:17:28;4.70;;;2.65;;
6626;SDS011;3349;49.830;8.748;2023-07-31T01:19:56;4.97;;;2.38;;
6626;SDS011;3349;49.830;8.748;2023-07-31T01:22:30;4.30;;;2.20;;
6626;SDS011;3349;49.830;8.748;2023-07-31T01:25:15;5.85;;;2.50;;
6626;SDS011;3349;49.830;8.748;2023-07-31T01:27:53;7.93;;;2.80;;
6626;SDS011;3349;49.830;8.748;2023-07-31T01:30:28;4.90;;;2.70;;
6626;SDS011;3349;49.830;8.748;2023-07-31T01:33:00;5.25;;;2.20;;
6626;SDS011;3349;49.830;8.748;2023-07-31T01:35:31;7.35;;;2.72;;
6626;SDS011;3349;49.830;8.748;2023-07-31T01:37:58;5.25;;;2.60;;
6626;SDS011;3349;49.830;8.748;2023-07-31T01:40:25;6.25;;;2.53;;
6626;SDS011;3349;49.830;8.748;2023-07-31T01:42:53;6.95;;;2.65;;
6626;SDS011;3349;49.830;8.748;2023-07-31T01:45:19;6.03;;;2.78;;
6626;SDS011;3349;49.830;8.748;2023-07-31T01:47:46;6.18;;;2.40;;
6626;SDS011;3349;49.830;8.748;2023-07-31T01:50:13;5.20;;;2.70;;
6626;SDS011;3349;49.830;8.748;2023-07-31T01:52:40;6.30;;;2.90;;
6626;SDS011;3349;49.830;8.748;2023-07-31T01:55:06;4.72;;;2.67;;
6626;SDS011;3349;49.830;8.748;2023-07-31T01:57:33;9.23;;;2.58;;
6626;SDS011;3349;49.830;8.748;2023-07-31T02:00:03;5.57;;;2.50;;
6626;SDS011;3349;49.830;8.748;2023-07-31T02:02:30;4.95;;;2.35;;
6626;SDS011;3349;49.830;8.748;2023-07-31T02:04:57;10.15;;;2.80;;
6626;SDS011;3349;49.830;8.748;2023-07-31T02:07:24;7.00;;;2.80;;
6626;SDS011;3349;49.830;8.748;2023-07-31T02:09:50;4.18;;;2.70;;
6626;SDS011;3349;49.830;8.748;2023-07-31T02:12:17;7.10;;;2.63;;
6626;SDS011;3349;49.830;8.748;2023-07-31T02:14:44;8.35;;;2.85;;
6626;SDS011;3349;49.830;8.748;2023-07-31T02:17:12;7.78;;;2.38;;
6626;SDS011;3349;49.830;8.748;2023-07-31T02:19:38;5.43;;;2.30;;
6626;SDS011;3349;49.830;8.748;2023-07-31T02:22:05;4.05;;;2.47;;
6626;SDS011;3349;49.830;8.748;2023-07-31T02:24:32;6.85;;;2.58;;
6626;SDS011;3349;49.830;8.748;2023-07-31T02:26:59;10.10;;;2.75;;
6626;SDS011;3349;49.830;8.748;2023-07-31T02:29:25;5.45;;;2.90;;
6626;SDS011;3349;49.830;8.748;2023-07-31T02:31:52;8.13;;;2.67;;
6626;SDS011;3349;49.830;8.748;2023-07-31T02:34:20;5.90;;;2.65;;
6626;SDS011;3349;49.830;8.748;2023-07-31T02:36:47;4.95;;;2.75;;
6626;SDS011;3349;49.830;8.748;2023-07-31T02:39:14;5.65;;;2.60;;
6626;SDS011;3349;49.830;8.748;2023-07-31T02:41:40;6.80;;;2.50;;
6626;SDS011;3349;49.830;8.748;2023-07-31T02:44:07;7.82;;;2.50;;
6626;SDS011;3349;49.830;8.748;2023-07-31T02:46:35;5.85;;;2.63;;
6626;SDS011;3349;49.830;8.748;2023-07-31T02:49:02;5.18;;;2.33;;
6626;SDS011;3349;49.830;8.748;2023-07-31T02:51:30;5.05;;;2.90;;
6626;SDS011;3349;49.830;8.748;2023-07-31T02:53:56;5.68;;;2.60;;
6626;SDS011;3349;49.830;8.748;2023-07-31T02:56:23;5.03;;;2.88;;
6626;SDS011;3349;49.830;8.748;2023-07-31T02:58:50;4.75;;;2.75;;
6626;SDS011;3349;49.830;8.748;2023-07-31T03:01:16;7.32;;;2.90;;
6626;SDS011;3349;49.830;8.748;2023-07-31T03:03:43;5.15;;;2.55;;
6626;SDS011;3349;49.830;8.748;2023-07-31T03:06:10;9.27;;;2.63;;
6626;SDS011;3349;49.830;8.748;2023-07-31T03:08:38;8.48;;;3.13;;
6626;SDS011;3349;49.830;8.748;2023-07-31T03:11:04;6.00;;;2.70;;
6626;SDS011;3349;49.830;8.748;2023-07-31T03:13:31;5.05;;;2.42;;
6626;SDS011;3349;49.830;8.748;2023-07-31T03:15:58;8.82;;;2.72;;
6626;SDS011;3349;49.830;8.748;2023-07-31T03:18:24;8.15;;;2.95;;
6626;SDS011;3349;49.830;8.748;2023-07-31T03:20:51;4.97;;;2.88;;
6626;SDS011;3349;49.830;8.748;2023-07-31T03:23:18;8.32;;;3.28;;
6626;SDS011;3349;49.830;8.748;2023-07-31T03:25:56;7.22;;;3.28;;
6626;SDS011;3349;49.830;8.748;2023-07-31T03:28:23;6.65;;;3.53;;
6626;SDS011;3349;49.830;8.748;2023-07-31T03:30:50;6.78;;;2.45;;
6626;SDS011;3349;49.830;8.748;2023-07-31T03:33:17;7.25;;;2.65;;
6626;SDS011;3349;49.830;8.748;2023-07-31T03:35:44;7.13;;;2.95;;
6626;SDS011;3349;49.830;8.748;2023-07-31T03:38:11;11.13;;;3.60;;
6626;SDS011;3349;49.830;8.748;2023-07-31T03:40:37;8.15;;;3.20;;
6626;SDS011;3349;49.830;8.748;2023-07-31T03:43:06;6.38;;;2.90;;
6626;SDS011;3349;49.830;8.748;2023-07-31T03:45:32;7.60;;;3.15;;
6626;SDS011;3349;49.830;8.748;2023-07-31T03:47:59;7.68;;;3.15;;
6626;SDS011;3349;49.830;8.748;2023-07-31T03:50:26;8.02;;;3.58;;
6626;SDS011;3349;49.830;8.748;2023-07-31T03:52:53;5.38;;;2.97;;
6626;SDS011;3349;49.830;8.748;2023-07-31T03:55:19;7.43;;;3.30;;
6626;SDS011;3349;49.830;8.748;2023-07-31T03:57:46;8.40;;;3.25;;
6626;SDS011;3349;49.830;8.748;2023-07-31T04:00:14;7.40;;;3.33;;
6626;SDS011;3349;49.830;8.748;2023-07-31T04:02:41;6.95;;;3.35;;
6626;SDS011;3349;49.830;8.748;2023-07-31T04:05:08;5.32;;;2.85;;
6626;SDS011;3349;49.830;8.748;2023-07-31T04:07:35;6.82;;;3.15;;
6626;SDS011;3349;49.830;8.748;2023-07-31T04:10:03;8.88;;;3.33;;
6626;SDS011;3349;49.830;8.748;2023-07-31T04:12:30;5.88;;;2.88;;
6626;SDS011;3349;49.830;8.748;2023-07-31T04:14:56;8.35;;;3.17;;
6626;SDS011;3349;49.830;8.748;2023-07-31T04:17:24;6.82;;;2.83;;
6626;SDS011;3349;49.830;8.748;2023-07-31T04:19:51;5.82;;;2.80;;
6626;SDS011;3349;49.830;8.748;2023-07-31T04:22:18;6.07;;;3.10;;
6626;SDS011;3349;49.830;8.748;2023-07-31T04:24:44;6.18;;;3.67;;
6626;SDS011;3349;49.830;8.748;2023-07-31T04:27:11;9.23;;;3.25;;
6626;SDS011;3349;49.830;8.748;2023-07-31T04:29:38;5.80;;;3.28;;
6626;SDS011;3349;49.830;8.748;2023-07-31T04:32:07;7.07;;;3.25;;
6626;SDS011;3349;49.830;8.748;2023-07-31T04:34:35;5.43;;;2.85;;
6626;SDS011;3349;49.830;8.748;2023-07-31T04:37:02;5.40;;;3.20;;
6626;SDS011;3349;49.830;8.748;2023-07-31T04:39:29;7.93;;;3.08;;
6626;SDS011;3349;49.830;8.748;2023-07-31T04:41:56;8.93;;;3.35;;
6626;SDS011;3349;49.830;8.748;2023-07-31T04:44:22;6.90;;;3.28;;
6626;SDS011;3349;49.830;8.748;2023-07-31T04:46:49;5.88;;;3.60;;
6626;SDS011;3349;49.830;8.748;2023-07-31T04:49:16;8.13;;;3.22;;
6626;SDS011;3349;49.830;8.748;2023-07-31T04:51:43;5.60;;;3.17;;
6626;SDS011;3349;49.830;8.748;2023-07-31T04:54:10;7.22;;;3.35;;
6626;SDS011;3349;49.830;8.748;2023-07-31T04:56:39;6.18;;;3.22;;
6626;SDS011;3349;49.830;8.748;2023-07-31T04:59:06;5.78;;;2.85;;
6626;SDS011;3349;49.830;8.748;2023-07-31T05:01:33;5.82;;;3.08;;
6626;SDS011;3349;49.830;8.748;2023-07-31T05:04:00;8.13;;;2.95;;
6626;SDS011;3349;49.830;8.748;2023-07-31T05:06:29;7.95;;;3.20;;
6626;SDS011;3349;49.830;8.748;2023-07-31T05:08:57;6.55;;;3.40;;
6626;SDS011;3349;49.830;8.748;2023-07-31T05:11:24;3.90;;;2.80;;
6626;SDS011;3349;49.830;8.748;2023-07-31T05:13:50;6.65;;;3.15;;
6626;SDS011;3349;49.830;8.748;2023-07-31T05:16:17;7.85;;;3.20;;
6626;SDS011;3349;49.830;8.748;2023-07-31T05:18:43;8.25;;;3.42;;
6626;SDS011;3349;49.830;8.748;2023-07-31T05:21:10;8.43;;;3.30;;
6626;SDS011;3349;49.830;8.748;2023-07-31T05:23:37;4.80;;;3.20;;
6626;SDS011;3349;49.830;8.748;2023-07-31T05:26:05;8.90;;;3.63;;
6626;SDS011;3349;49.830;8.748;2023-07-31T05:28:33;6.72;;;3.63;;
6626;SDS011;3349;49.830;8.748;2023-07-31T05:31:00;7.57;;;3.10;;
6626;SDS011;3349;49.830;8.748;2023-07-31T05:33:27;7.20;;;3.47;;
6626;SDS011;3349;49.830;8.748;2023-07-31T05:35:54;7.53;;;3.40;;
6626;SDS011;3349;49.830;8.748;2023-07-31T05:38:20;5.95;;;3.05;;
6626;SDS011;3349;49.830;8.748;2023-07-31T05:40:47;6.03;;;3.17;;
6626;SDS011;3349;49.830;8.748;2023-07-31T05:43:15;8.02;;;3.03;;
6626;SDS011;3349;49.830;8.748;2023-07-31T05:45:42;5.03;;;3.10;;
6626;SDS011;3349;49.830;8.748;2023-07-31T05:48:09;5.20;;;3.42;;
6626;SDS011;3349;49.830;8.748;2023-07-31T05:50:36;5.97;;;3.17;;
6626;SDS011;3349;49.830;8.748;2023-07-31T05:53:04;9.80;;;3.67;;
6626;SDS011;3349;49.830;8.748;2023-07-31T05:55:30;8.02;;;3.65;;
6626;SDS011;3349;49.830;8.748;2023-07-31T05:57:57;7.53;;;3.10;;
6626;SDS011;3349;49.830;8.748;2023-07-31T06:00:25;8.60;;;3.08;;
6626;SDS011;3349;49.830;8.748;2023-07-31T06:02:52;6.75;;;3.03;;
6626;SDS011;3349;49.830;8.748;2023-07-31T06:05:19;7.78;;;3.17;;
6626;SDS011;3349;49.830;8.748;2023-07-31T06:07:46;7.07;;;3.30;;
6626;SDS011;3349;49.830;8.748;2023-07-31T06:10:12;8.48;;;3.45;;
6626;SDS011;3349;49.830;8.748;2023-07-31T06:12:39;9.18;;;3.78;;
6626;SDS011;3349;49.830;8.748;2023-07-31T06:15:06;6.38;;;3.30;;
6626;SDS011;3349;49.830;8.748;2023-07-31T06:17:34;5.43;;;3.10;;
6626;SDS011;3349;49.830;8.748;2023-07-31T06:20:01;5.88;;;2.97;;
6626;SDS011;3349;49.830;8.748;2023-07-31T06:22:30;9.95;;;3.28;;
6626;SDS011;3349;49.830;8.748;2023-07-31T06:24:56;7.75;;;3.25;;
6626;SDS011;3349;49.830;8.748;2023-07-31T06:27:23;7.70;;;3.28;;
6626;SDS011;3349;49.830;8.748;2023-07-31T06:29:50;5.28;;;3.40;;
6626;SDS011;3349;49.830;8.748;2023-07-31T06:32:17;7.13;;;3.03;;
6626;SDS011;3349;49.830;8.748;2023-07-31T06:34:45;5.75;;;3.08;;
6626;SDS011;3349;49.830;8.748;2023-07-31T06:37:12;8.68;;;3.28;;
6626;SDS011;3349;49.830;8.748;2023-07-31T06:39:38;5.40;;;3.13;;
6626;SDS011;3349;49.830;8.748;2023-07-31T06:42:05;6.25;;;3.20;;
6626;SDS011;3349;49.830;8.748;2023-07-31T06:44:32;5.90;;;3.15;;
6626;SDS011;3349;49.830;8.748;2023-07-31T06:46:59;6.55;;;3.13;;
6626;SDS011;3349;49.830;8.748;2023-07-31T06:49:25;6.47;;;3.15;;
6626;SDS011;3349;49.830;8.748;2023-07-31T06:51:53;6.57;;;3.00;;
6626;SDS011;3349;49.830;8.748;2023-07-31T06:54:20;7.30;;;3.63;;
6626;SDS011;3349;49.830;8.748;2023-07-31T06:56:47;6.85;;;3.20;;
6626;SDS011;3349;49.830;8.748;2023-07-31T06:59:13;5.68;;;3.00;;
6626;SDS011;3349;49.830;8.748;2023-07-31T07:01:40;6.97;;;3.40;;
6626;SDS011;3349;49.830;8.748;2023-07-31T07:04:07;6.60;;;3.33;;
6626;SDS011;3349;49.830;8.748;2023-07-31T07:06:33;7.60;;;3.08;;
6626;SDS011;3349;49.830;8.748;2023-07-31T07:09:01;6.15;;;3.22;;
6626;SDS011;3349;49.830;8.748;2023-07-31T07:11:29;7.72;;;3.15;;
6626;SDS011;3349;49.830;8.748;2023-07-31T07:13:55;8.35;;;3.13;;
6626;SDS011;3349;49.830;8.748;2023-07-31T07:16:22;6.40;;;2.97;;
6626;SDS011;3349;49.830;8.748;2023-07-31T07:18:49;7.35;;;3.45;;
6626;SDS011;3349;49.830;8.748;2023-07-31T07:21:16;6.60;;;3.17;;
6626;SDS011;3349;49.830;8.748;2023-07-31T07:23:43;6.30;;;2.88;;
6626;SDS011;3349;49.830;8.748;2023-07-31T07:26:11;9.02;;;3.42;;
6626;SDS011;3349;49.830;8.748;2023-07-31T07:28:37;5.20;;;3.15;;
6626;SDS011;3349;49.830;8.748;2023-07-31T07:31:04;6.03;;;3.22;;
6626;SDS011;3349;49.830;8.748;2023-07-31T07:33:31;5.43;;;2.90;;
6626;SDS011;3349;49.830;8.748;2023-07-31T07:35:59;5.03;;;3.00;;
6626;SDS011;3349;49.830;8.748;2023-07-31T07:38:26;6.22;;;3.30;;
6626;SDS011;3349;49.830;8.748;2023-07-31T07:40:53;7.90;;;3.33;;
6626;SDS011;3349;49.830;8.748;2023-07-31T07:43:21;7.07;;;3.25;;
6626;SDS011;3349;49.830;8.748;2023-07-31T07:45:48;5.55;;;3.60;;
6626;SDS011;3349;49.830;8.748;2023-07-31T07:48:15;8.68;;;3.42;;
6626;SDS011;3349;49.830;8.748;2023-07-31T07:50:43;6.35;;;3.13;;
6626;SDS011;3349;49.830;8.748;2023-07-31T07:53:09;7.15;;;3.20;;
6626;SDS011;3349;49.830;8.748;2023-07-31T07:55:36;6.18;;;3.80;;
6626;SDS011;3349;49.830;8.748;2023-07-31T07:58:03;10.32;;;3.30;;
6626;SDS011;3349;49.830;8.748;2023-07-31T08:00:31;8.25;;;3.72;;
6626;SDS011;3349;49.830;8.748;2023-07-31T08:02:58;7.30;;;3.60;;
6626;SDS011;3349;49.830;8.748;2023-07-31T08:05:24;6.68;;;3.10;;
6626;SDS011;3349;49.830;8.748;2023-07-31T08:07:51;5.10;;;3.15;;
6626;SDS011;3349;49.830;8.748;2023-07-31T08:10:18;8.57;;;3.50;;
6626;SDS011;3349;49.830;8.748;2023-07-31T08:12:44;7.90;;;3.05;;
6626;SDS011;3349;49.830;8.748;2023-07-31T08:15:11;6.38;;;3.28;;
6626;SDS011;3349;49.830;8.748;2023-07-31T08:17:39;8.05;;;3.47;;
6626;SDS011;3349;49.830;8.748;2023-07-31T08:20:06;10.77;;;3.80;;
6626;SDS011;3349;49.830;8.748;2023-07-31T08:22:34;5.95;;;3.30;;
6626;SDS011;3349;49.830;8.748;2023-07-31T08:25:01;5.93;;;3.17;;
6626;SDS011;3349;49.830;8.748;2023-07-31T08:27:28;8.43;;;3.40;;
6626;SDS011;3349;49.830;8.748;2023-07-31T08:29:54;7.00;;;3.42;;
6626;SDS011;3349;49.830;8.748;2023-07-31T08:32:21;7.35;;;3.20;;
6626;SDS011;3349;49.830;8.748;2023-07-31T08:34:49;5.03;;;2.97;;
6626;SDS011;3349;49.830;8.748;2023-07-31T08:37:16;8.07;;;3.42;;
6626;SDS011;3349;49.830;8.748;2023-07-31T08:39:43;8.00;;;3.55;;
6626;SDS011;3349;49.830;8.748;2023-07-31T08:42:09;5.68;;;3.10;;
6626;SDS011;3349;49.830;8.748;2023-07-31T08:44:36;6.28;;;3.05;;
6626;SDS011;3349;49.830;8.748;2023-07-31T08:47:04;7.20;;;3.22;;
6626;SDS011;3349;49.830;8.748;2023-07-31T08:49:31;6.97;;;4.07;;
6626;SDS011;3349;49.830;8.748;2023-07-31T08:52:01;7.13;;;3.50;;
6626;SDS011;3349;49.830;8.748;2023-07-31T08:54:28;6.32;;;3.42;;
6626;SDS011;3349;49.830;8.748;2023-07-31T08:56:56;5.60;;;3.40;;
6626;SDS011;3349;49.830;8.748;2023-07-31T08:59:25;4.50;;;3.38;;
6626;SDS011;3349;49.830;8.748;2023-07-31T09:01:55;5.28;;;3.17;;
6626;SDS011;3349;49.830;8.748;2023-07-31T09:04:23;8.30;;;4.07;;
6626;SDS011;3349;49.830;8.748;2023-07-31T09:06:51;6.05;;;3.30;;
6626;SDS011;3349;49.830;8.748;2023-07-31T09:09:27;4.78;;;3.20;;
6626;SDS011;3349;49.830;8.748;2023-07-31T09:11:54;6.35;;;3.72;;
6626;SDS011;3349;49.830;8.748;2023-07-31T09:14:22;6.40;;;3.63;;
6626;SDS011;3349;49.830;8.748;2023-07-31T09:16:53;6.68;;;3.47;;
6626;SDS011;3349;49.830;8.748;2023-07-31T09:19:24;6.32;;;3.28;;
6626;SDS011;3349;49.830;8.748;2023-07-31T09:21:52;7.53;;;3.92;;
6626;SDS011;3349;49.830;8.748;2023-07-31T09:24:24;4.85;;;3.10;;
6626;SDS011;3349;49.830;8.748;2023-07-31T09:26:54;6.15;;;3.38;;
6626;SDS011;3349;49.830;8.748;2023-07-31T09:29:22;4.75;;;3.30;;
6626;SDS011;3349;49.830;8.748;2023-07-31T09:31:49;5.43;;;3.15;;
6626;SDS011;3349;49.830;8.748;2023-07-31T09:34:16;5.13;;;3.35;;
6626;SDS011;3349;49.830;8.748;2023-07-31T09:36:43;8.30;;;3.38;;
6626;SDS011;3349;49.830;8.748;2023-07-31T09:39:11;7.80;;;3.42;;
6626;SDS011;3349;49.830;8.748;2023-07-31T09:41:39;8.77;;;3.80;;
6626;SDS011;3349;49.830;8.748;2023-07-31T09:44:09;7.50;;;3.42;;
6626;SDS011;3349;49.830;8.748;2023-07-31T09:46:36;6.85;;;3.40;;
6626;SDS011;3349;49.830;8.748;2023-07-31T09:49:03;5.78;;;3.65;;
6626;SDS011;3349;49.830;8.748;2023-07-31T09:51:31;6.93;;;3.65;;
6626;SDS011;3349;49.830;8.748;2023-07-31T09:54:03;7.60;;;3.60;;
6626;SDS011;3349;49.830;8.748;2023-07-31T09:56:38;6.50;;;3.65;;
6626;SDS011;3349;49.830;8.748;2023-07-31T09:59:12;4.68;;;3.10;;
6626;SDS011;3349;49.830;8.748;2023-07-31T10:01:39;6.40;;;3.72;;
6626;SDS011;3349;49.830;8.748;2023-07-31T10:04:07;8.63;;;3.60;;
6626;SDS011;3349;49.830;8.748;2023-07-31T10:06:34;6.55;;;3.40;;
6626;SDS011;3349;49.830;8.748;2023-07-31T10:09:02;4.85;;;3.05;;
6626;SDS011;3349;49.830;8.748;2023-07-31T10:11:31;6.38;;;3.38;;
6626;SDS011;3349;49.830;8.748;2023-07-31T10:14:02;4.78;;;3.60;;
6626;SDS011;3349;49.830;8.748;2023-07-31T10:16:32;6.05;;;3.55;;
6626;SDS011;3349;49.830;8.748;2023-07-31T10:19:00;4.90;;;3.42;;
6626;SDS011;3349;49.830;8.748;2023-07-31T10:21:27;5.82;;;3.50;;
6626;SDS011;3349;49.830;8.748;2023-07-31T10:23:54;5.10;;;3.25;;
6626;SDS011;3349;49.830;8.748;2023-07-31T10:26:22;6.30;;;4.00;;
6626;SDS011;3349;49.830;8.748;2023-07-31T10:28:51;4.85;;;3.40;;
6626;SDS011;3349;49.830;8.748;2023-07-31T10:31:19;4.32;;;3.33;;
6626;SDS011;3349;49.830;8.748;2023-07-31T10:33:48;6.65;;;3.60;;
6626;SDS011;3349;49.830;8.748;2023-07-31T10:36:17;4.97;;;3.47;;
6626;SDS011;3349;49.830;8.748;2023-07-31T10:38:44;5.82;;;3.70;;
6626;SDS011;3349;49.830;8.748;2023-07-31T10:41:11;5.50;;;3.42;;
6626;SDS011;3349;49.830;8.748;2023-07-31T10:43:38;6.72;;;3.95;;
6626;SDS011;3349;49.830;8.748;2023-07-31T10:46:08;5.82;;;3.70;;
6626;SDS011;3349;49.830;8.748;2023-07-31T10:48:38;4.85;;;3.80;;
6626;SDS011;3349;49.830;8.748;2023-07-31T10:51:08;6.63;;;3.55;;
6626;SDS011;3349;49.830;8.748;2023-07-31T10:53:36;7.28;;;4.20;;
6626;SDS011;3349;49.830;8.748;2023-07-31T10:56:04;7.47;;;4.00;;
6626;SDS011;3349;49.830;8.748;2023-07-31T10:58:32;7.57;;;3.70;;
6626;SDS011;3349;49.830;8.748;2023-07-31T11:01:00;7.72;;;3.90;;
6626;SDS011;3349;49.830;8.748;2023-07-31T11:03:41;8.18;;;3.78;;
6626;SDS011;3349;49.830;8.748;2023-07-31T11:06:10;5.38;;;3.67;;
6626;SDS011;3349;49.830;8.748;2023-07-31T11:08:41;7.65;;;4.10;;
6626;SDS011;3349;49.830;8.748;2023-07-31T11:11:09;8.85;;;3.90;;
6626;SDS011;3349;49.830;8.748;2023-07-31T11:13:41;5.28;;;3.78;;
6626;SDS011;3349;49.830;8.748;2023-07-31T11:16:08;4.97;;;3.78;;
6626;SDS011;3349;49.830;8.748;2023-07-31T11:18:37;4.85;;;3.58;;
6626;SDS011;3349;49.830;8.748;2023-07-31T11:21:05;6.43;;;3.90;;
6626;SDS011;3349;49.830;8.748;2023-07-31T11:23:33;5.68;;;3.55;;
6626;SDS011;3349;49.830;8.748;2023-07-31T11:25:59;8.75;;;4.07;;
6626;SDS011;3349;49.830;8.748;2023-07-31T11:28:31;8.82;;;4.38;;
6626;SDS011;3349;49.830;8.748;2023-07-31T11:30:59;7.30;;;4.07;;
6626;SDS011;3349;49.830;8.748;2023-07-31T11:33:26;5.88;;;3.88;;
6626;SDS011;3349;49.830;8.748;2023-07-31T11:35:53;8.23;;;4.20;;
6626;SDS011;3349;49.830;8.748;2023-07-31T11:38:23;6.93;;;4.18;;
6626;SDS011;3349;49.830;8.748;2023-07-31T11:40:53;7.95;;;4.25;;
6626;SDS011;3349;49.830;8.748;2023-07-31T11:43:20;7.47;;;4.00;;
6626;SDS011;3349;49.830;8.748;2023-07-31T11:45:48;7.90;;;4.30;;
6626;SDS011;3349;49.830;8.748;2023-07-31T11:48:19;6.03;;;4.00;;
6626;SDS011;3349;49.830;8.748;2023-07-31T11:50:47;5.10;;;3.58;;
6626;SDS011;3349;49.830;8.748;2023-07-31T11:53:16;7.93;;;3.33;;
6626;SDS011;3349;49.830;8.748;2023-07-31T11:55:45;5.55;;;3.63;;
6626;SDS011;3349;49.830;8.748;2023-07-31T11:58:13;6.40;;;3.80;;
6626;SDS011;3349;49.830;8.748;2023-07-31T12:00:41;4.22;;;3.45;;
6626;SDS011;3349;49.830;8.748;2023-07-31T12:03:08;6.40;;;3.63;;
6626;SDS011;3349;49.830;8.748;2023-07-31T12:05:36;7.13;;;3.60;;
6626;SDS011;3349;49.830;8.748;2023-07-31T12:08:08;5.15;;;3.42;;
6626;SDS011;3349;49.830;8.748;2023-07-31T12:10:36;7.00;;;3.53;;
6626;SDS011;3349;49.830;8.748;2023-07-31T12:13:06;6.00;;;3.75;;
6626;SDS011;3349;49.830;8.748;2023-07-31T12:15:40;7.35;;;4.15;;
6626;SDS011;3349;49.830;8.748;2023-07-31T12:18:08;5.53;;;3.70;;
6626;SDS011;3349;49.830;8.748;2023-07-31T12:20:39;10.30;;;3.63;;
6626;SDS011;3349;49.830;8.748;2023-07-31T12:23:12;10.68;;;3.67;;
6626;SDS011;3349;49.830;8.748;2023-07-31T12:25:40;6.28;;;3.90;;
6626;SDS011;3349;49.830;8.748;2023-07-31T12:28:07;7.82;;;4.03;;
6626;SDS011;3349;49.830;8.748;2023-07-31T12:30:37;5.05;;;3.90;;
6626;SDS011;3349;49.830;8.748;2023-07-31T12:33:06;5.75;;;3.75;;
6626;SDS011;3349;49.830;8.748;2023-07-31T12:35:40;5.05;;;3.35;;
6626;SDS011;3349;49.830;8.748;2023-07-31T12:38:08;5.25;;;3.53;;
6626;SDS011;3349;49.830;8.748;2023-07-31T12:40:36;8.80;;;3.90;;
6626;SDS011;3349;49.830;8.748;2023-07-31T12:43:04;6.07;;;3.75;;
6626;SDS011;3349;49.830;8.748;2023-07-31T12:45:31;9.75;;;4.07;;
6626;SDS011;3349;49.830;8.748;2023-07-31T12:48:00;6.45;;;3.55;;
6626;SDS011;3349;49.830;8.748;2023-07-31T12:50:27;7.38;;;3.85;;
6626;SDS011;3349;49.830;8.748;2023-07-31T12:52:54;5.35;;;3.65;;
6626;SDS011;3349;49.830;8.748;2023-07-31T12:55:21;6.25;;;3.88;;
6626;SDS011;3349;49.830;8.748;2023-07-31T12:57:48;6.00;;;3.72;;
6626;SDS011;3349;49.830;8.748;2023-07-31T13:00:15;6.43;;;3.58;;
6626;SDS011;3349;49.830;8.748;2023-07-31T13:02:42;7.93;;;3.53;;
6626;SDS011;3349;49.830;8.748;2023-07-31T13:05:11;6.95;;;3.70;;
6626;SDS011;3349;49.830;8.748;2023-07-31T13:07:38;6.25;;;3.83;;
6626;SDS011;3349;49.830;8.748;2023-07-31T13:10:05;6.25;;;3.72;;
6626;SDS011;3349;49.830;8.748;2023-07-31T13:12:33;4.40;;;3.35;;
6626;SDS011;3349;49.830;8.748;2023-07-31T13:15:00;9.57;;;4.13;;
6626;SDS011;3349;49.830;8.748;2023-07-31T13:17:26;6.25;;;3.80;;
6626;SDS011;3349;49.830;8.748;2023-07-31T13:19:53;6.88;;;3.60;;
6626;SDS011;3349;49.830;8.748;2023-07-31T13:22:21;6.63;;;3.80;;
6626;SDS011;3349;49.830;8.748;2023-07-31T13:24:48;6.25;;;3.38;;
6626;SDS011;3349;49.830;8.748;2023-07-31T13:27:14;5.75;;;3.15;;
6626;SDS011;3349;49.830;8.748;2023-07-31T13:29:43;5.93;;;3.80;;
6626;SDS011;3349;49.830;8.748;2023-07-31T13:32:10;6.60;;;3.78;;
6626;SDS011;3349;49.830;8.748;2023-07-31T13:34:37;4.78;;;3.28;;
6626;SDS011;3349;49.830;8.748;2023-07-31T13:37:04;6.13;;;3.40;;
6626;SDS011;3349;49.830;8.748;2023-07-31T13:39:32;5.32;;;3.55;;
6626;SDS011;3349;49.830;8.748;2023-07-31T13:41:59;5.88;;;3.70;;
6626;SDS011;3349;49.830;8.748;2023-07-31T13:44:25;6.20;;;3.83;;
6626;SDS011;3349;49.830;8.748;2023-07-31T13:46:52;4.70;;;3.70;;
6626;SDS011;3349;49.830;8.748;2023-07-31T13:49:19;9.18;;;4.00;;
6626;SDS011;3349;49.830;8.748;2023-07-31T13:51:45;5.72;;;3.45;;
6626;SDS011;3349;49.830;8.748;2023-07-31T13:54:12;5.13;;;3.20;;
6626;SDS011;3349;49.830;8.748;2023-07-31T13:56:42;5.70;;;3.28;;
6626;SDS011;3349;49.830;8.748;2023-07-31T13:59:10;6.32;;;3.42;;
6626;SDS011;3349;49.830;8.748;2023-07-31T14:01:37;6.68;;;3.58;;
6626;SDS011;3349;49.830;8.748;2023-07-31T14:04:03;5.63;;;3.33;;
6626;SDS011;3349;49.830;8.748;2023-07-31T14:06:30;7.28;;;3.80;;
6626;SDS011;3349;49.830;8.748;2023-07-31T14:08:57;5.57;;;3.38;;
6626;SDS011;3349;49.830;8.748;2023-07-31T14:11:23;6.78;;;3.97;;
6626;SDS011;3349;49.830;8.748;2023-07-31T14:13:51;4.53;;;3.63;;
6626;SDS011;3349;49.830;8.748;2023-07-31T14:16:18;5.90;;;3.67;;
6626;SDS011;3349;49.830;8.748;2023-07-31T14:18:45;5.72;;;3.50;;
6626;SDS011;3349;49.830;8.748;2023-07-31T14:21:11;8.30;;;3.63;;
6626;SDS011;3349;49.830;8.748;2023-07-31T14:23:38;6.68;;;4.15;;
6626;SDS011;3349;49.830;8.748;2023-07-31T14:26:05;4.72;;;3.53;;
6626;SDS011;3349;49.830;8.748;2023-07-31T14:28:32;5.88;;;3.60;;
6626;SDS011;3349;49.830;8.748;2023-07-31T14:31:00;8.80;;;3.55;;
6626;SDS011;3349;49.830;8.748;2023-07-31T14:33:26;9.88;;;4.03;;
6626;SDS011;3349;49.830;8.748;2023-07-31T14:35:53;4.35;;;3.40;;
6626;SDS011;3349;49.830;8.748;2023-07-31T14:38:20;7.43;;;3.45;;
6626;SDS011;3349;49.830;8.748;2023-07-31T14:40:46;8.07;;;3.80;;
6626;SDS011;3349;49.830;8.748;2023-07-31T14:43:13;7.65;;;3.55;;
6626;SDS011;3349;49.830;8.748;2023-07-31T14:45:40;9.23;;;3.95;;
6626;SDS011;3349;49.830;8.748;2023-07-31T14:48:08;7.63;;;3.40;;
6626;SDS011;3349;49.830;8.748;2023-07-31T14:50:35;10.60;;;3.38;;
6626;SDS011;3349;49.830;8.748;2023-07-31T14:53:01;4.88;;;3.40;;
6626;SDS011;3349;49.830;8.748;2023-07-31T14:55:28;6.60;;;3.88;;
6626;SDS011;3349;49.830;8.748;2023-07-31T14:57:55;5.72;;;3.42;;
6626;SDS011;3349;49.830;8.748;2023-07-31T15:00:21;5.00;;;3.55;;
6626;SDS011;3349;49.830;8.748;2023-07-31T15:02:49;5.03;;;3.25;;
6626;SDS011;3349;49.830;8.748;2023-07-31T15:05:17;7.80;;;3.83;;
6626;SDS011;3349;49.830;8.748;2023-07-31T15:07:44;7.45;;;3.80;;
6626;SDS011;3349;49.830;8.748;2023-07-31T15:10:10;5.63;;;3.63;;
6626;SDS011;3349;49.830;8.748;2023-07-31T15:12:39;6.82;;;3.50;;
6626;SDS011;3349;49.830;8.748;2023-07-31T15:15:07;8.38;;;3.70;;
6626;SDS011;3349;49.830;8.748;2023-07-31T15:17:34;4.97;;;3.42;;